Time;durP1;ratioP1;P1;durP2;ratioP2;P2;SDS_P1;SDS_P2;PMS_P1;PMS_P2;Temp;Humidity;BMP_temperature;BMP_pressure;BME280_temperature;BME280_humidity;BME280_pressure;Samples;Min_cycle;Max_cycle;Signal;HPM_P1;HPM_P2
2022/11/14 00:00:09;;;;;;;30.40;16.77;;;6.40;99.90;;;;;;4995017;28;20133;-75
2022/11/14 00:02:35;;;;;;;33.20;17.42;;;6.40;99.90;;;;;;4993917;28;20038;-75
2022/11/14 00:05:01;;;;;;;32.38;17.83;;;6.40;99.90;;;;;;4994560;28;20124;-74
2022/11/14 00:07:30;;;;;;;31.73;17.30;;;6.40;99.90;;;;;;4992654;28;20133;-79
2022/11/14 00:09:56;;;;;;;29.20;16.58;;;6.40;99.90;;;;;;4994949;28;20030;-76
2022/11/14 00:12:22;;;;;;;30.35;17.13;;;6.50;99.90;;;;;;4993939;28;20104;-76
2022/11/14 00:14:47;;;;;;;31.70;16.73;;;6.50;99.90;;;;;;4993866;28;20117;-75
2022/11/14 00:17:13;;;;;;;31.77;17.85;;;6.50;99.90;;;;;;4994771;28;20165;-76
2022/11/14 00:19:38;;;;;;;30.98;18.10;;;6.50;99.90;;;;;;4993725;28;20042;-75
2022/11/14 00:22:04;;;;;;;31.45;17.20;;;6.50;99.90;;;;;;4995185;28;20044;-78
2022/11/14 00:24:30;;;;;;;30.45;17.75;;;6.50;99.90;;;;;;4994099;28;20061;-75
2022/11/14 00:26:55;;;;;;;34.67;18.17;;;6.50;99.90;;;;;;4994841;28;20120;-74
2022/11/14 00:29:21;;;;;;;33.78;19.45;;;6.50;99.90;;;;;;4992312;28;20041;-75
2022/11/14 00:31:46;;;;;;;32.05;18.55;;;6.50;99.90;;;;;;4993477;28;20061;-75
2022/11/14 00:34:12;;;;;;;33.08;18.85;;;6.50;99.90;;;;;;4994801;28;20515;-76
2022/11/14 00:36:38;;;;;;;33.38;18.60;;;6.50;99.90;;;;;;4994548;28;20091;-76
2022/11/14 00:39:03;;;;;;;34.25;19.55;;;6.50;99.90;;;;;;4994911;28;20172;-76
2022/11/14 00:41:29;;;;;;;30.58;18.33;;;6.50;99.90;;;;;;4992529;28;20120;-75
2022/11/14 00:43:55;;;;;;;34.42;19.02;;;6.60;99.90;;;;;;4994610;28;20559;-77
2022/11/14 00:46:20;;;;;;;37.22;19.33;;;6.60;99.90;;;;;;4991769;28;20124;-75
2022/11/14 00:48:46;;;;;;;33.58;19.00;;;6.60;99.90;;;;;;4990911;28;20048;-75
2022/11/14 00:51:11;;;;;;;32.53;19.05;;;6.60;99.90;;;;;;4993235;28;20120;-75
2022/11/14 00:53:37;;;;;;;31.63;19.00;;;6.60;99.90;;;;;;4994800;28;20096;-76
2022/11/14 00:56:03;;;;;;;32.28;18.80;;;6.60;99.90;;;;;;4993623;28;20056;-75
2022/11/14 00:58:29;;;;;;;35.38;19.17;;;6.60;99.90;;;;;;4993203;28;20073;-76
2022/11/14 01:00:54;;;;;;;34.30;20.58;;;6.60;99.90;;;;;;4994268;28;20038;-75
2022/11/14 01:03:20;;;;;;;36.80;20.45;;;6.60;99.90;;;;;;4992268;28;20042;-77
2022/11/14 01:05:50;;;;;;;37.58;21.55;;;6.60;99.90;;;;;;4993452;28;20034;-77
2022/11/14 01:08:18;;;;;;;39.42;22.60;;;6.60;99.90;;;;;;4990849;28;20041;-75
2022/11/14 01:10:48;;;;;;;36.88;21.73;;;6.60;99.90;;;;;;4992643;28;20029;-75
2022/11/14 01:13:14;;;;;;;39.00;22.70;;;6.60;99.90;;;;;;4994561;28;20042;-76
2022/11/14 01:15:42;;;;;;;39.45;23.02;;;6.70;99.90;;;;;;4993847;28;20034;-75
2022/11/14 01:18:15;;;;;;;40.88;22.85;;;6.60;99.90;;;;;;4991717;28;20041;-75
2022/11/14 01:20:42;;;;;;;43.63;24.00;;;6.60;99.90;;;;;;4993309;28;20038;-75
2022/11/14 01:23:09;;;;;;;45.60;26.08;;;6.60;99.90;;;;;;4993338;28;20087;-75
2022/11/14 01:25:39;;;;;;;48.30;27.05;;;6.60;99.90;;;;;;4993396;28;20044;-75
2022/11/14 01:28:13;;;;;;;49.45;28.70;;;6.60;99.90;;;;;;4975375;28;20038;-77
2022/11/14 01:30:39;;;;;;;47.25;27.17;;;6.60;99.90;;;;;;4992210;28;20042;-76
2022/11/14 01:33:05;;;;;;;45.28;24.55;;;6.60;99.90;;;;;;4992794;28;20033;-75
2022/11/14 01:35:33;;;;;;;49.30;27.25;;;6.60;99.90;;;;;;4993144;28;20041;-76
2022/11/14 01:37:58;;;;;;;49.10;28.77;;;6.60;99.90;;;;;;4993269;28;20042;-76
2022/11/14 01:40:24;;;;;;;50.47;28.65;;;6.60;99.90;;;;;;4992313;28;20045;-76
2022/11/14 01:43:22;;;;;;;49.78;30.00;;;6.60;99.90;;;;;;4992738;28;20446;-76
2022/11/14 01:46:04;;;;;;;49.83;29.88;;;6.50;99.90;;;;;;5003280;28;20053;-76
2022/11/14 01:48:46;;;;;;;53.08;29.98;;;6.50;99.90;;;;;;4991786;28;20034;-75
2022/11/14 01:51:20;;;;;;;55.80;30.70;;;6.40;99.90;;;;;;4976042;28;20089;-76
2022/11/14 01:53:49;;;;;;;52.05;29.77;;;6.40;99.90;;;;;;5006786;28;20038;-75
2022/11/14 01:56:19;;;;;;;55.83;31.25;;;6.40;99.90;;;;;;4989670;28;20097;-75
2022/11/14 01:58:50;;;;;;;51.08;29.10;;;6.40;99.90;;;;;;4993198;28;20053;-75
2022/11/14 02:01:16;;;;;;;52.53;28.98;;;6.40;99.90;;;;;;4991906;28;20050;-75
2022/11/14 02:03:44;;;;;;;53.55;31.05;;;6.30;99.90;;;;;;4992917;28;20048;-74
2022/11/14 02:06:14;;;;;;;53.10;30.10;;;6.30;99.90;;;;;;4991264;28;20045;-75
2022/11/14 02:08:41;;;;;;;56.13;31.00;;;6.30;99.90;;;;;;4991119;28;20591;-77
2022/11/14 02:11:10;;;;;;;52.20;29.92;;;6.30;99.90;;;;;;4991252;28;20111;-75
2022/11/14 02:13:36;;;;;;;51.90;29.63;;;6.40;99.90;;;;;;4992006;28;20037;-74
2022/11/14 02:16:01;;;;;;;55.38;30.83;;;6.30;99.90;;;;;;4990156;28;20034;-77
2022/11/14 02:18:27;;;;;;;55.88;30.42;;;6.30;99.90;;;;;;4991635;28;20491;-74
2022/11/14 02:20:52;;;;;;;56.97;31.40;;;6.30;99.90;;;;;;4992974;28;20121;-75
2022/11/14 02:23:27;;;;;;;49.67;29.70;;;6.30;99.90;;;;;;4991236;28;20107;-75
2022/11/14 02:25:53;;;;;;;53.22;29.45;;;6.40;99.90;;;;;;4991529;28;20399;-75
2022/11/14 02:28:20;;;;;;;52.97;28.98;;;6.30;99.90;;;;;;4993315;28;20064;-76
2022/11/14 02:30:46;;;;;;;55.75;29.88;;;6.30;99.90;;;;;;4992310;28;20049;-75
2022/11/14 02:33:11;;;;;;;59.42;30.90;;;6.30;99.90;;;;;;4991916;28;20504;-76
2022/11/14 02:35:37;;;;;;;56.42;30.38;;;6.30;99.90;;;;;;4992112;28;20034;-75
2022/11/14 02:38:02;;;;;;;56.67;29.65;;;6.20;99.90;;;;;;4992415;28;20503;-76
2022/11/14 02:40:28;;;;;;;57.15;31.48;;;6.20;99.90;;;;;;4988488;28;20042;-75
2022/11/14 02:42:54;;;;;;;54.47;29.63;;;6.30;99.90;;;;;;4987858;28;20104;-75
2022/11/14 02:45:19;;;;;;;53.97;28.95;;;6.20;99.90;;;;;;4992052;28;20100;-75
2022/11/14 02:47:45;;;;;;;59.40;31.13;;;6.20;99.90;;;;;;4992365;28;20357;-76
2022/11/14 02:50:11;;;;;;;53.50;29.95;;;6.30;99.90;;;;;;4974704;28;20038;-75
2022/11/14 02:52:36;;;;;;;57.92;29.88;;;6.30;99.90;;;;;;4992648;28;20042;-75
2022/11/14 02:55:03;;;;;;;57.10;31.42;;;6.30;99.90;;;;;;4993197;28;20042;-75
2022/11/14 02:57:29;;;;;;;58.63;30.38;;;6.30;99.90;;;;;;4989717;28;20038;-76
2022/11/14 02:59:54;;;;;;;58.28;29.65;;;6.30;99.90;;;;;;5011891;28;20052;-75
2022/11/14 03:02:20;;;;;;;57.90;29.70;;;6.40;99.90;;;;;;4996070;28;20388;-75
2022/11/14 03:04:46;;;;;;;58.38;29.80;;;6.40;99.90;;;;;;4995733;28;20116;-76
2022/11/14 03:07:11;;;;;;;55.85;29.80;;;6.40;99.90;;;;;;4995293;28;20123;-78
2022/11/14 03:09:37;;;;;;;57.20;30.75;;;6.40;99.90;;;;;;4994763;28;20093;-75
2022/11/14 03:12:03;;;;;;;51.58;29.27;;;6.40;99.90;;;;;;4991180;28;20046;-75
2022/11/14 03:14:30;;;;;;;58.45;30.45;;;6.40;99.90;;;;;;4995776;28;20545;-75
2022/11/14 03:16:56;;;;;;;54.28;29.65;;;6.50;99.90;;;;;;4994576;28;20037;-75
2022/11/14 03:19:21;;;;;;;55.05;29.00;;;6.40;99.90;;;;;;4979634;28;20069;-75
2022/11/14 03:21:47;;;;;;;58.35;30.95;;;6.50;99.90;;;;;;5012547;28;20034;-75
2022/11/14 03:24:12;;;;;;;53.67;29.58;;;6.50;99.90;;;;;;4996000;28;20046;-75
2022/11/14 03:26:38;;;;;;;57.38;30.35;;;6.50;99.90;;;;;;4995642;28;20099;-76
2022/11/14 03:29:03;;;;;;;52.65;29.27;;;6.50;99.90;;;;;;4995436;28;20041;-75
2022/11/14 03:31:29;;;;;;;52.33;28.20;;;6.50;99.90;;;;;;4995770;28;20033;-75
2022/11/14 03:33:54;;;;;;;58.83;30.52;;;6.50;99.90;;;;;;4994762;28;20556;-76
2022/11/14 03:36:20;;;;;;;52.35;28.40;;;6.50;99.90;;;;;;4996484;28;20053;-75
2022/11/14 03:38:46;;;;;;;54.67;29.80;;;6.50;99.90;;;;;;4994412;28;20111;-75
2022/11/14 03:41:11;;;;;;;55.08;29.42;;;6.60;99.90;;;;;;4995698;28;20044;-76
2022/11/14 03:43:37;;;;;;;53.03;29.25;;;6.50;99.90;;;;;;4996074;28;20050;-76
2022/11/14 03:46:03;;;;;;;52.15;28.40;;;6.50;99.90;;;;;;4978743;28;20495;-78
2022/11/14 03:48:29;;;;;;;56.35;29.75;;;6.50;99.90;;;;;;4992935;28;20049;-75
2022/11/14 03:50:55;;;;;;;51.58;29.58;;;6.40;99.90;;;;;;4994840;28;20040;-77
2022/11/14 03:53:20;;;;;;;49.90;28.58;;;6.50;99.90;;;;;;4995514;28;20037;-77
2022/11/14 03:55:46;;;;;;;54.05;28.50;;;6.50;99.90;;;;;;4994852;28;20034;-75
2022/11/14 03:58:11;;;;;;;53.60;29.23;;;6.50;99.90;;;;;;4993934;28;20133;-75
2022/11/14 04:00:37;;;;;;;55.88;30.63;;;6.50;99.90;;;;;;4995250;28;20543;-76
2022/11/14 04:03:03;;;;;;;52.20;28.23;;;6.50;99.90;;;;;;4995194;28;20045;-75
2022/11/14 04:05:28;;;;;;;51.13;29.58;;;6.50;99.90;;;;;;4978845;28;20463;-75
2022/11/14 04:07:54;;;;;;;51.30;28.73;;;6.50;99.90;;;;;;4994095;28;20041;-76
2022/11/14 04:10:20;;;;;;;54.42;29.73;;;6.50;99.90;;;;;;4994824;28;20445;-78
2022/11/14 04:12:51;;;;;;;50.45;27.80;;;6.40;99.90;;;;;;4994877;28;20034;-75
2022/11/14 04:15:18;;;;;;;53.38;29.02;;;6.40;99.90;;;;;;4993820;28;20065;-75
2022/11/14 04:17:44;;;;;;;48.17;29.30;;;6.50;99.90;;;;;;4994427;28;20038;-76
2022/11/14 04:20:11;;;;;;;51.17;28.92;;;6.50;99.90;;;;;;4993537;28;20049;-75
2022/11/14 04:22:36;;;;;;;47.03;27.00;;;6.40;99.90;;;;;;4994686;28;20034;-76
2022/11/14 04:25:03;;;;;;;50.72;28.23;;;6.40;99.90;;;;;;4992916;28;20490;-75
2022/11/14 04:27:28;;;;;;;48.53;27.13;;;6.40;99.90;;;;;;4992998;28;20038;-76
2022/11/14 04:29:54;;;;;;;53.83;30.38;;;6.40;99.90;;;;;;4993688;28;20061;-76
2022/11/14 04:32:19;;;;;;;52.60;29.00;;;6.40;99.90;;;;;;4993790;28;20053;-76
2022/11/14 04:34:45;;;;;;;50.13;27.95;;;6.40;99.90;;;;;;4993975;28;20053;-75
2022/11/14 04:37:10;;;;;;;49.63;28.15;;;6.40;99.90;;;;;;4994667;28;20092;-75
2022/11/14 04:39:36;;;;;;;50.67;29.02;;;6.40;99.90;;;;;;4994630;28;20042;-75
2022/11/14 04:42:02;;;;;;;53.83;28.15;;;6.40;99.90;;;;;;4994412;28;20046;-75
2022/11/14 04:44:27;;;;;;;52.15;28.48;;;6.40;99.90;;;;;;4993898;28;20692;-75
2022/11/14 04:46:53;;;;;;;50.92;29.52;;;6.40;99.90;;;;;;4995131;28;20124;-75
2022/11/14 04:49:18;;;;;;;50.47;28.98;;;6.40;99.90;;;;;;4993940;28;20038;-76
2022/11/14 04:51:43;;;;;;;52.10;28.92;;;6.40;99.90;;;;;;4994143;28;20121;-75
2022/11/14 04:54:09;;;;;;;49.45;28.13;;;6.50;99.90;;;;;;4991878;28;20129;-75
2022/11/14 04:56:35;;;;;;;49.47;27.88;;;6.40;99.90;;;;;;4994210;28;20121;-76
2022/11/14 04:59:00;;;;;;;50.45;29.70;;;6.40;99.90;;;;;;4993740;28;20580;-75
2022/11/14 05:01:26;;;;;;;48.13;29.02;;;6.40;99.90;;;;;;4993585;28;20038;-74
2022/11/14 05:03:51;;;;;;;51.17;27.83;;;6.40;99.90;;;;;;4994648;28;20054;-76
2022/11/14 05:06:17;;;;;;;51.20;28.48;;;6.40;99.90;;;;;;4992137;28;20042;-75
2022/11/14 05:08:42;;;;;;;51.67;28.80;;;6.40;99.90;;;;;;4994404;28;20042;-75
2022/11/14 05:11:17;;;;;;;50.05;28.58;;;6.40;99.90;;;;;;4993345;28;20103;-75
2022/11/14 05:13:43;;;;;;;49.67;26.70;;;6.40;99.90;;;;;;4991034;28;20042;-75
2022/11/14 05:16:08;;;;;;;49.90;28.63;;;6.40;99.90;;;;;;4993747;28;20045;-76
2022/11/14 05:18:34;;;;;;;49.20;27.73;;;6.30;99.90;;;;;;4992340;28;20041;-75
2022/11/14 05:21:00;;;;;;;48.90;28.27;;;6.30;99.90;;;;;;4991985;28;20049;-75
2022/11/14 05:23:26;;;;;;;49.33;27.60;;;6.40;99.90;;;;;;4992090;28;20910;-75
2022/11/14 05:26:03;;;;;;;48.67;27.50;;;6.40;99.90;;;;;;4993491;28;20030;-75
2022/11/14 05:28:30;;;;;;;48.80;27.45;;;6.40;99.90;;;;;;4976834;28;20030;-75
2022/11/14 05:31:03;;;;;;;49.00;27.40;;;6.40;99.90;;;;;;4991597;28;20038;-75
2022/11/14 05:33:29;;;;;;;49.25;29.17;;;6.40;99.90;;;;;;4994047;28;20070;-75
2022/11/14 05:35:55;;;;;;;52.90;29.27;;;6.30;99.90;;;;;;4993511;28;20041;-75
2022/11/14 05:38:21;;;;;;;52.13;29.13;;;6.30;99.90;;;;;;4993740;28;20048;-76
2022/11/14 05:40:46;;;;;;;51.63;30.02;;;6.30;99.90;;;;;;4995146;28;20120;-77
2022/11/14 05:43:12;;;;;;;53.92;29.58;;;6.30;99.90;;;;;;4993999;28;20439;-75
2022/11/14 05:45:37;;;;;;;52.05;29.58;;;6.40;99.90;;;;;;4993534;28;20399;-75
2022/11/14 05:48:03;;;;;;;47.25;27.65;;;6.30;99.90;;;;;;4992846;28;20049;-75
2022/11/14 05:50:29;;;;;;;54.42;30.10;;;6.30;99.90;;;;;;4991955;28;20120;-75
2022/11/14 05:52:55;;;;;;;52.05;29.02;;;6.30;99.90;;;;;;4993436;28;20124;-74
2022/11/14 05:55:21;;;;;;;51.17;29.30;;;6.30;99.90;;;;;;4992226;28;20510;-75
2022/11/14 05:57:46;;;;;;;52.83;29.20;;;6.30;99.90;;;;;;4991066;28;20117;-75
2022/11/14 06:00:12;;;;;;;54.15;29.45;;;6.30;99.90;;;;;;4992576;28;20495;-76
2022/11/14 06:02:38;;;;;;;53.55;29.77;;;6.30;99.90;;;;;;4992939;28;20050;-75
2022/11/14 06:05:04;;;;;;;55.28;30.02;;;6.30;99.90;;;;;;4989910;28;20054;-78
2022/11/14 06:07:29;;;;;;;51.03;28.90;;;6.30;99.90;;;;;;4988928;28;20052;-75
2022/11/14 06:09:55;;;;;;;53.65;29.30;;;6.30;99.90;;;;;;4993287;28;20407;-75
2022/11/14 06:12:20;;;;;;;54.05;29.65;;;6.30;99.90;;;;;;4993710;28;20087;-75
2022/11/14 06:14:46;;;;;;;53.63;30.17;;;6.30;99.90;;;;;;4993086;28;20445;-75
2022/11/14 06:17:11;;;;;;;50.35;28.45;;;6.20;99.90;;;;;;4991585;28;20042;-75
2022/11/14 06:19:37;;;;;;;52.38;28.20;;;6.20;99.90;;;;;;4986905;28;20042;-75
2022/11/14 06:22:02;;;;;;;53.22;29.35;;;6.20;99.90;;;;;;4993149;28;20070;-75
2022/11/14 06:24:28;;;;;;;56.55;30.10;;;6.20;99.90;;;;;;4990251;28;20049;-76
2022/11/14 06:26:53;;;;;;;54.92;29.50;;;6.30;99.90;;;;;;5006714;28;20438;-76
2022/11/14 06:29:19;;;;;;;58.10;30.13;;;6.20;99.90;;;;;;4991938;28;20040;-75
2022/11/14 06:31:44;;;;;;;55.00;28.67;;;6.20;99.90;;;;;;4995257;28;20466;-75
2022/11/14 06:34:11;;;;;;;52.92;28.45;;;6.20;99.90;;;;;;4998003;28;20046;-76
2022/11/14 06:36:37;;;;;;;55.90;30.23;;;6.20;99.90;;;;;;4996632;28;20046;-75
2022/11/14 06:39:03;;;;;;;53.58;29.92;;;6.20;99.90;;;;;;4977946;28;20511;-76
2022/11/14 06:41:28;;;;;;;52.53;30.10;;;6.10;99.90;;;;;;4978504;28;20050;-75
2022/11/14 06:43:54;;;;;;;54.58;28.42;;;6.10;99.90;;;;;;4997047;28;20042;-75
2022/11/14 06:46:21;;;;;;;53.08;29.50;;;6.10;99.90;;;;;;4997442;28;20051;-75
2022/11/14 06:48:48;;;;;;;50.00;27.95;;;6.20;99.90;;;;;;4997126;28;20042;-75
2022/11/14 06:51:14;;;;;;;54.08;28.98;;;6.10;99.90;;;;;;4997537;28;20099;-75
2022/11/14 06:53:41;;;;;;;55.20;29.50;;;6.10;99.90;;;;;;4996824;28;20395;-75
2022/11/14 06:56:08;;;;;;;55.58;30.17;;;6.10;99.90;;;;;;4996062;28;20483;-75
2022/11/14 06:58:40;;;;;;;54.90;29.50;;;6.10;99.90;;;;;;4994980;28;20048;-75
2022/11/14 07:01:09;;;;;;;52.25;28.38;;;6.10;99.90;;;;;;4996087;28;20400;-75
2022/11/14 07:03:34;;;;;;;52.22;27.50;;;6.10;99.90;;;;;;5004090;28;20049;-75
2022/11/14 07:06:01;;;;;;;52.35;27.75;;;6.10;99.90;;;;;;4995311;28;20042;-75
2022/11/14 07:08:26;;;;;;;55.85;28.85;;;6.00;99.90;;;;;;4996159;28;20488;-75
2022/11/14 07:10:52;;;;;;;55.95;29.02;;;6.00;99.90;;;;;;4994970;28;20084;-75
2022/11/14 07:13:18;;;;;;;56.03;29.08;;;6.00;99.90;;;;;;4996913;28;20050;-75
2022/11/14 07:15:53;;;;;;;52.40;28.65;;;6.00;99.90;;;;;;4994267;28;20033;-76
2022/11/14 07:18:19;;;;;;;55.30;29.10;;;6.00;99.90;;;;;;4995482;28;20050;-75
2022/11/14 07:20:45;;;;;;;55.65;29.52;;;6.00;99.90;;;;;;4980503;28;20116;-75
2022/11/14 07:23:11;;;;;;;61.10;30.83;;;5.90;99.90;;;;;;4995637;28;20055;-75
2022/11/14 07:25:37;;;;;;;53.50;28.77;;;5.90;99.90;;;;;;4994811;28;20038;-74
2022/11/14 07:28:02;;;;;;;58.63;29.45;;;5.90;99.90;;;;;;4994506;28;20034;-75
2022/11/14 07:30:28;;;;;;;55.08;28.52;;;5.90;99.90;;;;;;4995362;28;20096;-76
2022/11/14 07:32:58;;;;;;;54.38;28.42;;;5.90;99.90;;;;;;4996374;28;20399;-76
2022/11/14 07:35:24;;;;;;;55.13;27.95;;;5.90;99.90;;;;;;4977745;28;20092;-75
2022/11/14 07:37:50;;;;;;;56.28;28.73;;;5.90;99.90;;;;;;4994009;28;20060;-79
2022/11/14 07:40:16;;;;;;;54.13;29.23;;;5.90;99.90;;;;;;4996235;28;20045;-75
2022/11/14 07:42:41;;;;;;;55.72;28.17;;;5.80;99.90;;;;;;4994279;28;20076;-76
2022/11/14 07:45:08;;;;;;;53.33;28.33;;;5.80;99.90;;;;;;4995210;28;20088;-75
2022/11/14 07:47:33;;;;;;;54.25;30.10;;;5.80;99.90;;;;;;4979521;28;20037;-75
2022/11/14 07:49:59;;;;;;;57.40;30.13;;;5.80;99.90;;;;;;4996357;28;20526;-75
2022/11/14 07:52:24;;;;;;;55.22;29.75;;;5.90;99.90;;;;;;4996302;28;20042;-75
2022/11/14 07:54:50;;;;;;;59.53;30.25;;;5.80;99.90;;;;;;4995594;28;20040;-75
2022/11/14 07:57:16;;;;;;;60.88;30.52;;;5.80;99.90;;;;;;4993817;28;20034;-76
2022/11/14 07:59:41;;;;;;;54.90;30.25;;;5.80;99.90;;;;;;4995266;28;20069;-76
2022/11/14 08:02:13;;;;;;;58.15;29.42;;;5.80;99.90;;;;;;4996048;28;20499;-75
2022/11/14 08:04:39;;;;;;;55.25;30.38;;;5.90;99.90;;;;;;4995829;28;20049;-75
2022/11/14 08:07:04;;;;;;;60.97;31.42;;;5.90;99.90;;;;;;4991342;28;20088;-76
2022/11/14 08:09:30;;;;;;;61.35;32.03;;;6.00;99.90;;;;;;4994036;28;20069;-74
2022/11/14 08:11:55;;;;;;;61.53;32.15;;;6.00;99.90;;;;;;4995462;28;20122;-75
2022/11/14 08:14:21;;;;;;;59.83;30.48;;;6.00;99.90;;;;;;4995100;28;20042;-75
2022/11/14 08:16:46;;;;;;;60.35;30.60;;;6.00;99.90;;;;;;4995287;28;20038;-75
2022/11/14 08:19:12;;;;;;;54.13;30.05;;;6.00;99.90;;;;;;4994879;28;20458;-76
2022/11/14 08:21:38;;;;;;;57.88;30.25;;;6.00;99.90;;;;;;4995775;28;20144;-76
2022/11/14 08:24:03;;;;;;;53.65;28.63;;;6.00;99.90;;;;;;4995361;28;20048;-75
2022/11/14 08:26:29;;;;;;;54.55;29.13;;;6.00;99.90;;;;;;4990966;28;20121;-75
2022/11/14 08:28:55;;;;;;;58.35;29.80;;;6.10;99.90;;;;;;4993394;28;20068;-75
2022/11/14 08:31:20;;;;;;;51.35;28.67;;;6.10;99.90;;;;;;4993058;28;20034;-75
2022/11/14 08:33:49;;;;;;;56.28;28.40;;;6.10;99.90;;;;;;4994212;28;20034;-75
2022/11/14 08:36:14;;;;;;;54.83;29.38;;;6.20;99.90;;;;;;4993842;28;20038;-75
2022/11/14 08:38:40;;;;;;;52.33;28.83;;;6.20;99.90;;;;;;4992928;28;20091;-76
2022/11/14 08:41:05;;;;;;;51.47;29.67;;;6.20;99.90;;;;;;4992904;28;20049;-75
2022/11/14 08:43:31;;;;;;;50.70;28.17;;;6.20;99.90;;;;;;4991245;28;20033;-75
2022/11/14 08:46:01;;;;;;;54.78;28.40;;;6.20;99.90;;;;;;4986378;28;20034;-76
2022/11/14 08:48:26;;;;;;;52.15;29.45;;;6.20;99.90;;;;;;4993730;28;20047;-77
2022/11/14 08:50:52;;;;;;;52.78;28.70;;;6.20;99.90;;;;;;4992501;28;20496;-75
2022/11/14 08:53:17;;;;;;;51.40;28.27;;;6.30;99.90;;;;;;4993571;28;20038;-75
2022/11/14 08:55:44;;;;;;;52.30;28.48;;;6.30;99.90;;;;;;4994457;28;20041;-75
2022/11/14 08:58:09;;;;;;;51.85;28.23;;;6.40;99.90;;;;;;4991629;28;20037;-75
2022/11/14 09:00:35;;;;;;;53.40;29.67;;;6.40;99.90;;;;;;4994103;28;20045;-76
2022/11/14 09:03:05;;;;;;;52.83;28.90;;;6.50;99.90;;;;;;4992854;28;20128;-76
2022/11/14 09:05:31;;;;;;;58.13;30.02;;;6.50;99.90;;;;;;4994218;28;20088;-76
2022/11/14 09:07:57;;;;;;;54.15;30.40;;;6.50;99.90;;;;;;4990968;28;20447;-74
2022/11/14 09:10:24;;;;;;;50.50;29.58;;;6.50;99.90;;;;;;4994017;28;20080;-75
2022/11/14 09:12:55;;;;;;;57.53;30.05;;;6.50;99.90;;;;;;4994280;28;20571;-75
2022/11/14 09:15:20;;;;;;;51.10;28.83;;;6.60;99.90;;;;;;4994024;28;20587;-75
2022/11/14 09:17:46;;;;;;;53.25;29.77;;;6.60;99.90;;;;;;4994136;28;20091;-76
2022/11/14 09:20:12;;;;;;;53.67;29.63;;;6.70;99.90;;;;;;4993955;28;20081;-75
2022/11/14 09:22:37;;;;;;;53.05;28.52;;;6.70;99.90;;;;;;4993823;28;20068;-77
2022/11/14 09:25:03;;;;;;;53.80;29.98;;;6.80;99.90;;;;;;4993381;28;20412;-74
2022/11/14 09:27:28;;;;;;;52.13;30.30;;;6.80;99.90;;;;;;4993256;28;20038;-75
2022/11/14 09:29:54;;;;;;;54.10;29.27;;;6.80;99.90;;;;;;4994135;28;20488;-76
2022/11/14 09:32:19;;;;;;;51.42;28.83;;;6.80;99.90;;;;;;4992587;28;20034;-75
2022/11/14 09:34:46;;;;;;;52.83;28.83;;;6.80;99.90;;;;;;4993563;28;20049;-75
2022/11/14 09:37:12;;;;;;;54.08;29.58;;;6.90;99.90;;;;;;4991402;28;20042;-74
2022/11/14 09:39:39;;;;;;;51.60;28.98;;;6.80;99.90;;;;;;5010454;28;20052;-75
2022/11/14 09:42:38;;;;;;;48.08;28.60;;;6.90;99.90;;;;;;4993704;28;20512;-75
2022/11/14 09:45:11;;;;;;;50.00;28.50;;;6.90;99.90;;;;;;4992726;28;20041;-74
2022/11/14 09:47:48;;;;;;;49.78;28.42;;;6.90;99.90;;;;;;4971910;28;20152;-74
2022/11/14 09:50:18;;;;;;;50.38;28.60;;;7.00;99.90;;;;;;4989772;28;20049;-74
2022/11/14 09:52:51;;;;;;;53.22;28.70;;;7.00;99.90;;;;;;4993349;28;20042;-75
2022/11/14 09:55:20;;;;;;;49.88;28.70;;;7.00;99.90;;;;;;4989840;28;20041;-75
2022/11/14 09:57:45;;;;;;;47.78;27.35;;;7.00;99.90;;;;;;4992133;28;20100;-75
2022/11/14 10:00:20;;;;;;;48.50;27.98;;;7.00;99.90;;;;;;4992064;28;20054;-77
2022/11/14 10:03:02;;;;;;;48.08;27.40;;;6.90;99.90;;;;;;4988462;28;20404;-75
2022/11/14 10:05:52;;;;;;;51.00;28.05;;;6.90;99.90;;;;;;4989137;28;20046;-75
2022/11/14 10:08:59;;;;;;;49.40;27.67;;;7.00;99.90;;;;;;4974352;28;20136;-75
2022/11/14 10:11:35;;;;;;;51.38;29.20;;;7.20;99.90;;;;;;4991478;28;20124;-76
2022/11/14 10:14:21;;;;;;;50.53;29.30;;;7.40;99.90;;;;;;4989257;28;20158;-76
2022/11/14 10:16:49;;;;;;;52.10;29.45;;;7.40;99.90;;;;;;4985467;28;20124;-76
2022/11/14 10:19:28;;;;;;;50.03;28.75;;;7.50;99.90;;;;;;4991119;28;20041;-74
2022/11/14 10:22:04;;;;;;;45.85;26.55;;;7.50;99.90;;;;;;4993448;28;20095;-75
2022/11/14 10:24:38;;;;;;;44.67;26.00;;;7.50;99.90;;;;;;4983261;28;20049;-75
2022/11/14 10:27:05;;;;;;;;;;;7.40;99.90;;;;;;4992574;28;20038;-74
2022/11/14 10:29:52;;;;;;;48.40;26.98;;;7.40;99.90;;;;;;4990966;28;19965;-75
2022/11/14 10:32:50;;;;;;;45.22;27.23;;;7.50;99.90;;;;;;4993572;28;20397;-77
2022/11/14 10:35:41;;;;;;;46.85;27.48;;;7.60;99.90;;;;;;4976514;28;20042;-76
2022/11/14 10:38:06;;;;;;;48.85;28.52;;;7.80;99.90;;;;;;4992552;28;20161;-75
2022/11/14 10:41:03;;;;;;;48.45;28.35;;;8.00;99.90;;;;;;4991623;28;20150;-77
2022/11/14 10:43:40;;;;;;;47.65;28.42;;;8.10;99.90;;;;;;4977796;28;20056;-75
2022/11/14 10:46:16;;;;;;;45.08;26.83;;;8.20;99.90;;;;;;4990032;28;20523;-76
2022/11/14 10:48:46;;;;;;;43.88;25.65;;;8.20;99.90;;;;;;4991814;28;20118;-75
2022/11/14 10:51:32;;;;;;;44.78;26.15;;;8.10;99.90;;;;;;4990821;28;20049;-75
2022/11/14 10:54:35;;;;;;;42.03;25.65;;;8.10;99.90;;;;;;4993205;28;20053;-75
2022/11/14 10:57:01;;;;;;;45.80;26.23;;;8.00;99.90;;;;;;4993017;28;20050;-76
2022/11/14 10:59:27;;;;;;;46.63;27.42;;;7.90;99.90;;;;;;4989554;28;20041;-76
2022/11/14 11:01:55;;;;;;;43.53;27.20;;;7.80;99.90;;;;;;4984310;28;20420;-75
2022/11/14 11:04:24;;;;;;;42.00;25.48;;;7.80;99.90;;;;;;4988094;28;20038;-75
2022/11/14 11:06:52;;;;;;;42.65;26.13;;;7.80;99.90;;;;;;4995253;28;20044;-75
2022/11/14 11:12:18;;;;;;;44.75;26.92;;;7.90;99.90;;;;;;4992316;28;20049;-75
2022/11/14 11:14:45;;;;;;;42.13;26.08;;;8.00;99.90;;;;;;4993206;28;20037;-75
2022/11/14 11:17:10;;;;;;;44.03;26.10;;;8.10;99.90;;;;;;4992363;28;20038;-75
2022/11/14 11:19:40;;;;;;;40.92;25.45;;;8.10;99.90;;;;;;4994432;28;20049;-76
2022/11/14 11:22:26;;;;;;;45.50;25.60;;;8.10;99.90;;;;;;5014334;28;20638;-75
2022/11/14 11:24:51;;;;;;;39.92;24.35;;;8.10;99.90;;;;;;4990745;28;20511;-76
2022/11/14 11:27:22;;;;;;;41.22;25.05;;;8.10;99.90;;;;;;5011115;28;20036;-75
2022/11/14 11:30:21;;;;;;;43.28;25.92;;;8.20;99.90;;;;;;4989467;28;20126;-76
2022/11/14 11:32:47;;;;;;;43.33;25.77;;;8.20;99.90;;;;;;4989819;28;20083;-76
2022/11/14 11:35:16;;;;;;;39.88;24.50;;;8.30;99.90;;;;;;4996141;28;20034;-75
2022/11/14 11:37:56;;;;;;;42.75;26.42;;;8.40;99.90;;;;;;4989396;28;20044;-78
2022/11/14 11:40:26;;;;;;;40.25;23.80;;;8.40;99.90;;;;;;4990522;28;20037;-75
2022/11/14 11:43:11;;;;;;;40.63;25.35;;;8.40;99.90;;;;;;5003391;28;20514;-75
2022/11/14 11:45:37;;;;;;;39.95;24.23;;;8.50;99.90;;;;;;4993044;28;20037;-75
2022/11/14 11:48:20;;;;;;;38.20;24.42;;;8.50;99.90;;;;;;4996310;28;20046;-76
2022/11/14 11:50:47;;;;;;;38.50;23.85;;;8.60;99.90;;;;;;4991105;28;20042;-74
2022/11/14 11:53:23;;;;;;;38.38;23.25;;;8.60;99.90;;;;;;4991414;28;20042;-75
2022/11/14 11:55:51;;;;;;;38.58;24.00;;;8.60;99.90;;;;;;4995313;28;20144;-76
2022/11/14 11:58:24;;;;;;;37.65;24.10;;;8.60;99.90;;;;;;4995208;28;20069;-75
2022/11/14 12:00:54;;;;;;;37.38;23.65;;;8.60;99.90;;;;;;4995970;28;20081;-75
2022/11/14 12:03:20;;;;;;;38.50;23.65;;;8.60;99.90;;;;;;4994684;28;20057;-75
2022/11/14 12:06:06;;;;;;;38.58;22.52;;;8.60;99.90;;;;;;4995931;28;20049;-75
2022/11/14 12:08:59;;;;;;;39.00;23.67;;;8.70;99.90;;;;;;4994348;28;20074;-75
2022/11/14 12:11:28;;;;;;;39.30;23.58;;;8.80;99.90;;;;;;4994469;28;20553;-75
2022/11/14 12:14:37;;;;;;;38.20;24.40;;;8.90;99.90;;;;;;4995746;28;20095;-75
2022/11/14 12:17:32;;;;;;;35.25;22.30;;;9.00;99.90;;;;;;5008479;28;20041;-75
2022/11/14 12:20:04;;;;;;;38.60;23.52;;;9.00;99.90;;;;;;5006572;28;20197;-75
2022/11/14 12:22:48;;;;;;;37.33;23.55;;;9.00;99.90;;;;;;4994174;28;20052;-75
2022/11/14 12:25:37;;;;;;;33.28;21.25;;;9.10;99.90;;;;;;4995385;28;20538;-75
2022/11/14 12:28:40;;;;;;;34.60;22.30;;;9.10;99.90;;;;;;4975954;28;20070;-75
2022/11/14 12:31:12;;;;;;;36.13;21.83;;;9.10;99.90;;;;;;4992179;28;20384;-75
2022/11/14 12:33:42;;;;;;;37.15;23.63;;;9.00;99.90;;;;;;4994788;28;20056;-77
2022/11/14 12:36:11;;;;;;;40.55;24.50;;;9.00;99.90;;;;;;4988816;28;20484;-75
2022/11/14 12:38:42;;;;;;;34.00;22.00;;;8.90;99.90;;;;;;4993822;28;20037;-75
2022/11/14 12:41:08;;;;;;;36.22;22.95;;;9.00;99.90;;;;;;4993375;28;20046;-76
2022/11/14 12:43:41;;;;;;;35.35;22.42;;;9.10;99.90;;;;;;4994587;28;20029;-76
2022/11/14 12:46:10;;;;;;;36.45;23.23;;;9.10;99.90;;;;;;4993811;28;20403;-75
2022/11/14 12:48:37;;;;;;;34.95;22.75;;;9.20;99.90;;;;;;4992673;28;20045;-75